sensor_id;sensor_type;location;lat;lon;timestamp;P1;durP1;ratioP1;P2;durP2;ratioP2
12725;SDS011;6427;49.754;6.106;2023-11-21T00:00:45;3.10;;;2.63;;
12725;SDS011;6427;49.754;6.106;2023-11-21T00:03:12;3.17;;;2.47;;
12725;SDS011;6427;49.754;6.106;2023-11-21T00:05:40;2.33;;;2.10;;
12725;SDS011;6427;49.754;6.106;2023-11-21T00:08:08;3.67;;;2.47;;
12725;SDS011;6427;49.754;6.106;2023-11-21T00:10:36;3.47;;;2.40;;
12725;SDS011;6427;49.754;6.106;2023-11-21T00:13:03;2.87;;;2.47;;
12725;SDS011;6427;49.754;6.106;2023-11-21T00:15:32;2.50;;;2.03;;
12725;SDS011;6427;49.754;6.106;2023-11-21T00:17:59;2.80;;;2.00;;
12725;SDS011;6427;49.754;6.106;2023-11-21T00:20:27;2.83;;;1.80;;
12725;SDS011;6427;49.754;6.106;2023-11-21T00:22:54;2.73;;;1.73;;
12725;SDS011;6427;49.754;6.106;2023-11-21T00:25:22;1.97;;;1.80;;
12725;SDS011;6427;49.754;6.106;2023-11-21T00:27:50;2.35;;;2.12;;
12725;SDS011;6427;49.754;6.106;2023-11-21T00:30:17;2.13;;;1.93;;
12725;SDS011;6427;49.754;6.106;2023-11-21T00:32:45;2.90;;;1.80;;
12725;SDS011;6427;49.754;6.106;2023-11-21T00:35:12;2.37;;;2.00;;
12725;SDS011;6427;49.754;6.106;2023-11-21T00:37:41;2.33;;;2.10;;
12725;SDS011;6427;49.754;6.106;2023-11-21T00:40:08;4.30;;;2.03;;
12725;SDS011;6427;49.754;6.106;2023-11-21T00:42:36;2.43;;;2.03;;
12725;SDS011;6427;49.754;6.106;2023-11-21T00:45:04;2.40;;;2.20;;
12725;SDS011;6427;49.754;6.106;2023-11-21T00:47:31;3.20;;;2.60;;
12725;SDS011;6427;49.754;6.106;2023-11-21T00:49:59;2.60;;;1.80;;
12725;SDS011;6427;49.754;6.106;2023-11-21T00:52:26;2.30;;;1.47;;
12725;SDS011;6427;49.754;6.106;2023-11-21T00:54:54;2.20;;;1.60;;
12725;SDS011;6427;49.754;6.106;2023-11-21T00:57:22;2.40;;;1.70;;
12725;SDS011;6427;49.754;6.106;2023-11-21T00:59:49;2.80;;;1.80;;
12725;SDS011;6427;49.754;6.106;2023-11-21T01:02:17;4.18;;;2.58;;
12725;SDS011;6427;49.754;6.106;2023-11-21T01:04:44;2.93;;;2.00;;
12725;SDS011;6427;49.754;6.106;2023-11-21T01:07:12;3.13;;;1.87;;
12725;SDS011;6427;49.754;6.106;2023-11-21T01:09:39;1.53;;;1.40;;
12725;SDS011;6427;49.754;6.106;2023-11-21T01:12:07;2.13;;;1.60;;
12725;SDS011;6427;49.754;6.106;2023-11-21T01:14:35;1.43;;;1.20;;
12725;SDS011;6427;49.754;6.106;2023-11-21T01:17:02;2.00;;;1.40;;
12725;SDS011;6427;49.754;6.106;2023-11-21T01:19:30;1.23;;;1.13;;
12725;SDS011;6427;49.754;6.106;2023-11-21T01:21:58;2.80;;;1.53;;
12725;SDS011;6427;49.754;6.106;2023-11-21T01:24:26;1.37;;;1.27;;
12725;SDS011;6427;49.754;6.106;2023-11-21T01:26:54;2.37;;;1.47;;
12725;SDS011;6427;49.754;6.106;2023-11-21T01:29:22;1.70;;;1.57;;
12725;SDS011;6427;49.754;6.106;2023-11-21T01:31:49;2.83;;;1.30;;
12725;SDS011;6427;49.754;6.106;2023-11-21T01:34:17;1.37;;;1.27;;
12725;SDS011;6427;49.754;6.106;2023-11-21T01:36:45;1.47;;;1.30;;
12725;SDS011;6427;49.754;6.106;2023-11-21T01:39:12;1.90;;;1.53;;
12725;SDS011;6427;49.754;6.106;2023-11-21T01:41:40;1.83;;;1.60;;
12725;SDS011;6427;49.754;6.106;2023-11-21T01:44:07;2.10;;;1.70;;
12725;SDS011;6427;49.754;6.106;2023-11-21T01:46:35;1.77;;;1.63;;
12725;SDS011;6427;49.754;6.106;2023-11-21T01:49:02;2.40;;;1.50;;
12725;SDS011;6427;49.754;6.106;2023-11-21T01:51:30;2.27;;;1.60;;
12725;SDS011;6427;49.754;6.106;2023-11-21T01:53:58;2.77;;;2.10;;
12725;SDS011;6427;49.754;6.106;2023-11-21T01:56:25;2.20;;;1.90;;
12725;SDS011;6427;49.754;6.106;2023-11-21T01:58:53;2.77;;;1.80;;
12725;SDS011;6427;49.754;6.106;2023-11-21T02:01:20;2.30;;;1.60;;
12725;SDS011;6427;49.754;6.106;2023-11-21T02:03:49;2.90;;;1.80;;
12725;SDS011;6427;49.754;6.106;2023-11-21T02:06:16;2.27;;;1.43;;
12725;SDS011;6427;49.754;6.106;2023-11-21T02:08:44;2.53;;;1.53;;
12725;SDS011;6427;49.754;6.106;2023-11-21T02:11:12;4.20;;;1.47;;
12725;SDS011;6427;49.754;6.106;2023-11-21T02:13:40;2.13;;;1.60;;
12725;SDS011;6427;49.754;6.106;2023-11-21T02:16:10;2.10;;;1.60;;
12725;SDS011;6427;49.754;6.106;2023-11-21T02:18:38;2.83;;;1.57;;
12725;SDS011;6427;49.754;6.106;2023-11-21T02:21:05;5.47;;;1.77;;
12725;SDS011;6427;49.754;6.106;2023-11-21T02:23:33;2.57;;;1.77;;
12725;SDS011;6427;49.754;6.106;2023-11-21T02:26:00;2.50;;;2.00;;
12725;SDS011;6427;49.754;6.106;2023-11-21T02:28:28;2.20;;;1.50;;
12725;SDS011;6427;49.754;6.106;2023-11-21T02:30:55;4.60;;;1.80;;
12725;SDS011;6427;49.754;6.106;2023-11-21T02:33:23;2.67;;;1.73;;
12725;SDS011;6427;49.754;6.106;2023-11-21T02:35:51;1.97;;;1.37;;
12725;SDS011;6427;49.754;6.106;2023-11-21T02:38:18;2.50;;;1.80;;
12725;SDS011;6427;49.754;6.106;2023-11-21T02:40:46;3.40;;;2.25;;
12725;SDS011;6427;49.754;6.106;2023-11-21T02:43:13;2.80;;;1.47;;
12725;SDS011;6427;49.754;6.106;2023-11-21T02:45:41;3.87;;;1.80;;
12725;SDS011;6427;49.754;6.106;2023-11-21T02:48:09;2.20;;;1.90;;
12725;SDS011;6427;49.754;6.106;2023-11-21T02:50:36;2.20;;;2.00;;
12725;SDS011;6427;49.754;6.106;2023-11-21T02:53:04;4.60;;;2.30;;
12725;SDS011;6427;49.754;6.106;2023-11-21T02:55:34;3.80;;;2.50;;
12725;SDS011;6427;49.754;6.106;2023-11-21T02:58:02;3.30;;;2.60;;
12725;SDS011;6427;49.754;6.106;2023-11-21T03:00:29;3.73;;;2.37;;
12725;SDS011;6427;49.754;6.106;2023-11-21T03:02:58;3.23;;;2.30;;
12725;SDS011;6427;49.754;6.106;2023-11-21T03:05:25;3.20;;;2.50;;
12725;SDS011;6427;49.754;6.106;2023-11-21T03:07:53;2.90;;;2.30;;
12725;SDS011;6427;49.754;6.106;2023-11-21T03:10:20;5.00;;;2.97;;
12725;SDS011;6427;49.754;6.106;2023-11-21T03:12:48;5.70;;;3.23;;
12725;SDS011;6427;49.754;6.106;2023-11-21T03:15:16;5.63;;;3.17;;
12725;SDS011;6427;49.754;6.106;2023-11-21T03:17:43;3.73;;;2.60;;
12725;SDS011;6427;49.754;6.106;2023-11-21T03:20:11;3.27;;;2.80;;
12725;SDS011;6427;49.754;6.106;2023-11-21T03:22:39;3.37;;;2.70;;
12725;SDS011;6427;49.754;6.106;2023-11-21T03:25:07;3.70;;;2.33;;
12725;SDS011;6427;49.754;6.106;2023-11-21T03:27:34;4.23;;;2.20;;
12725;SDS011;6427;49.754;6.106;2023-11-21T03:30:02;2.30;;;1.80;;
12725;SDS011;6427;49.754;6.106;2023-11-21T03:32:29;3.53;;;2.30;;
12725;SDS011;6427;49.754;6.106;2023-11-21T03:34:57;6.43;;;2.30;;
12725;SDS011;6427;49.754;6.106;2023-11-21T03:37:25;3.37;;;2.07;;
12725;SDS011;6427;49.754;6.106;2023-11-21T03:39:52;4.53;;;2.20;;
12725;SDS011;6427;49.754;6.106;2023-11-21T03:42:21;2.70;;;2.30;;
12725;SDS011;6427;49.754;6.106;2023-11-21T03:44:48;2.50;;;1.93;;
12725;SDS011;6427;49.754;6.106;2023-11-21T03:47:16;2.57;;;2.03;;
12725;SDS011;6427;49.754;6.106;2023-11-21T03:49:43;3.53;;;1.97;;
12725;SDS011;6427;49.754;6.106;2023-11-21T03:52:11;3.17;;;2.40;;
12725;SDS011;6427;49.754;6.106;2023-11-21T03:54:38;3.47;;;2.13;;
12725;SDS011;6427;49.754;6.106;2023-11-21T03:57:07;2.63;;;2.17;;
12725;SDS011;6427;49.754;6.106;2023-11-21T03:59:34;3.73;;;2.10;;
12725;SDS011;6427;49.754;6.106;2023-11-21T04:02:02;2.17;;;1.93;;
12725;SDS011;6427;49.754;6.106;2023-11-21T04:04:29;2.57;;;2.00;;
12725;SDS011;6427;49.754;6.106;2023-11-21T04:06:57;4.15;;;2.67;;
12725;SDS011;6427;49.754;6.106;2023-11-21T04:09:25;4.53;;;2.40;;
12725;SDS011;6427;49.754;6.106;2023-11-21T04:11:53;3.13;;;1.77;;
12725;SDS011;6427;49.754;6.106;2023-11-21T04:14:21;2.47;;;1.90;;
12725;SDS011;6427;49.754;6.106;2023-11-21T04:16:48;3.20;;;2.00;;
12725;SDS011;6427;49.754;6.106;2023-11-21T04:19:16;3.17;;;1.77;;
12725;SDS011;6427;49.754;6.106;2023-11-21T04:21:44;2.30;;;2.10;;
12725;SDS011;6427;49.754;6.106;2023-11-21T04:24:12;3.23;;;2.10;;
12725;SDS011;6427;49.754;6.106;2023-11-21T04:26:39;2.97;;;2.20;;
12725;SDS011;6427;49.754;6.106;2023-11-21T04:29:07;2.90;;;2.20;;
12725;SDS011;6427;49.754;6.106;2023-11-21T04:31:34;4.83;;;2.10;;
12725;SDS011;6427;49.754;6.106;2023-11-21T04:34:03;4.30;;;2.67;;
12725;SDS011;6427;49.754;6.106;2023-11-21T04:36:30;4.17;;;2.67;;
12725;SDS011;6427;49.754;6.106;2023-11-21T04:38:58;3.23;;;2.33;;
12725;SDS011;6427;49.754;6.106;2023-11-21T04:41:26;4.47;;;3.00;;
12725;SDS011;6427;49.754;6.106;2023-11-21T04:43:54;2.70;;;2.23;;
12725;SDS011;6427;49.754;6.106;2023-11-21T04:46:21;4.37;;;2.47;;
12725;SDS011;6427;49.754;6.106;2023-11-21T04:48:49;3.10;;;2.57;;
12725;SDS011;6427;49.754;6.106;2023-11-21T04:51:17;3.17;;;2.17;;
12725;SDS011;6427;49.754;6.106;2023-11-21T04:53:45;3.90;;;2.30;;
12725;SDS011;6427;49.754;6.106;2023-11-21T04:56:12;4.63;;;2.73;;
12725;SDS011;6427;49.754;6.106;2023-11-21T04:58:40;4.07;;;2.27;;
12725;SDS011;6427;49.754;6.106;2023-11-21T05:01:08;7.30;;;2.80;;
12725;SDS011;6427;49.754;6.106;2023-11-21T05:03:35;3.37;;;2.20;;
12725;SDS011;6427;49.754;6.106;2023-11-21T05:06:03;4.50;;;2.50;;
12725;SDS011;6427;49.754;6.106;2023-11-21T05:08:30;4.27;;;2.70;;
12725;SDS011;6427;49.754;6.106;2023-11-21T05:10:59;4.70;;;2.60;;
12725;SDS011;6427;49.754;6.106;2023-11-21T05:13:26;5.53;;;2.90;;
12725;SDS011;6427;49.754;6.106;2023-11-21T05:15:54;5.10;;;3.40;;
12725;SDS011;6427;49.754;6.106;2023-11-21T05:18:21;6.33;;;3.07;;
12725;SDS011;6427;49.754;6.106;2023-11-21T05:20:49;3.23;;;2.47;;
12725;SDS011;6427;49.754;6.106;2023-11-21T05:23:17;4.10;;;2.60;;
12725;SDS011;6427;49.754;6.106;2023-11-21T05:25:44;6.90;;;3.03;;
12725;SDS011;6427;49.754;6.106;2023-11-21T05:28:12;11.93;;;3.50;;
12725;SDS011;6427;49.754;6.106;2023-11-21T05:30:40;3.67;;;3.00;;
12725;SDS011;6427;49.754;6.106;2023-11-21T05:33:08;4.10;;;2.97;;
12725;SDS011;6427;49.754;6.106;2023-11-21T05:35:36;6.40;;;3.43;;
12725;SDS011;6427;49.754;6.106;2023-11-21T05:38:04;4.80;;;3.50;;
12725;SDS011;6427;49.754;6.106;2023-11-21T05:40:32;6.20;;;3.87;;
12725;SDS011;6427;49.754;6.106;2023-11-21T05:42:59;6.07;;;3.87;;
12725;SDS011;6427;49.754;6.106;2023-11-21T05:45:28;7.43;;;3.80;;
12725;SDS011;6427;49.754;6.106;2023-11-21T05:47:55;5.87;;;4.03;;
12725;SDS011;6427;49.754;6.106;2023-11-21T05:50:23;7.50;;;3.93;;
12725;SDS011;6427;49.754;6.106;2023-11-21T05:52:51;6.87;;;4.53;;
12725;SDS011;6427;49.754;6.106;2023-11-21T05:55:18;7.23;;;4.20;;
12725;SDS011;6427;49.754;6.106;2023-11-21T05:57:46;7.87;;;4.40;;
12725;SDS011;6427;49.754;6.106;2023-11-21T06:00:14;7.20;;;4.40;;
12725;SDS011;6427;49.754;6.106;2023-11-21T06:02:50;8.07;;;4.37;;
12725;SDS011;6427;49.754;6.106;2023-11-21T06:05:17;9.43;;;4.80;;
12725;SDS011;6427;49.754;6.106;2023-11-21T06:07:45;6.77;;;4.47;;
12725;SDS011;6427;49.754;6.106;2023-11-21T06:10:12;7.27;;;4.07;;
12725;SDS011;6427;49.754;6.106;2023-11-21T06:12:41;6.20;;;4.27;;
12725;SDS011;6427;49.754;6.106;2023-11-21T06:15:09;6.63;;;4.23;;
12725;SDS011;6427;49.754;6.106;2023-11-21T06:17:36;6.57;;;4.00;;
12725;SDS011;6427;49.754;6.106;2023-11-21T06:20:08;6.23;;;4.10;;
12725;SDS011;6427;49.754;6.106;2023-11-21T06:22:41;7.82;;;5.37;;
12725;SDS011;6427;49.754;6.106;2023-11-21T06:25:05;9.40;;;4.83;;
12725;SDS011;6427;49.754;6.106;2023-11-21T06:27:32;7.13;;;4.40;;
12725;SDS011;6427;49.754;6.106;2023-11-21T06:30:00;7.23;;;4.90;;
12725;SDS011;6427;49.754;6.106;2023-11-21T06:32:27;7.30;;;4.73;;
12725;SDS011;6427;49.754;6.106;2023-11-21T06:34:55;9.03;;;5.20;;
12725;SDS011;6427;49.754;6.106;2023-11-21T06:37:23;9.67;;;5.50;;
12725;SDS011;6427;49.754;6.106;2023-11-21T06:39:50;8.87;;;4.70;;
12725;SDS011;6427;49.754;6.106;2023-11-21T06:42:18;8.43;;;5.37;;
12725;SDS011;6427;49.754;6.106;2023-11-21T06:44:49;11.13;;;5.67;;
12725;SDS011;6427;49.754;6.106;2023-11-21T06:47:20;7.73;;;4.80;;
12725;SDS011;6427;49.754;6.106;2023-11-21T06:49:47;8.70;;;5.00;;
12725;SDS011;6427;49.754;6.106;2023-11-21T06:52:15;7.67;;;4.90;;
12725;SDS011;6427;49.754;6.106;2023-11-21T06:54:42;6.70;;;4.70;;
12725;SDS011;6427;49.754;6.106;2023-11-21T06:57:10;9.60;;;5.47;;
12725;SDS011;6427;49.754;6.106;2023-11-21T06:59:38;12.37;;;6.53;;
12725;SDS011;6427;49.754;6.106;2023-11-21T07:02:05;8.97;;;5.37;;
12725;SDS011;6427;49.754;6.106;2023-11-21T07:04:36;7.27;;;4.53;;
12725;SDS011;6427;49.754;6.106;2023-11-21T07:07:03;8.10;;;4.87;;
12725;SDS011;6427;49.754;6.106;2023-11-21T07:09:31;7.53;;;5.13;;
12725;SDS011;6427;49.754;6.106;2023-11-21T07:11:58;8.33;;;4.50;;
12725;SDS011;6427;49.754;6.106;2023-11-21T07:14:26;7.80;;;4.77;;
12725;SDS011;6427;49.754;6.106;2023-11-21T07:16:54;6.93;;;4.47;;
12725;SDS011;6427;49.754;6.106;2023-11-21T07:19:22;8.17;;;4.80;;
12725;SDS011;6427;49.754;6.106;2023-11-21T07:21:49;7.63;;;5.00;;
12725;SDS011;6427;49.754;6.106;2023-11-21T07:24:17;7.60;;;5.03;;
12725;SDS011;6427;49.754;6.106;2023-11-21T07:26:45;10.97;;;5.40;;
12725;SDS011;6427;49.754;6.106;2023-11-21T07:29:13;13.83;;;5.77;;
12725;SDS011;6427;49.754;6.106;2023-11-21T07:31:41;10.70;;;5.40;;
12725;SDS011;6427;49.754;6.106;2023-11-21T07:34:08;7.80;;;5.03;;
12725;SDS011;6427;49.754;6.106;2023-11-21T07:36:36;9.33;;;5.63;;
12725;SDS011;6427;49.754;6.106;2023-11-21T07:39:03;7.73;;;4.70;;
12725;SDS011;6427;49.754;6.106;2023-11-21T07:41:31;8.83;;;5.50;;
12725;SDS011;6427;49.754;6.106;2023-11-21T07:43:58;7.20;;;4.80;;
12725;SDS011;6427;49.754;6.106;2023-11-21T07:46:26;8.37;;;5.10;;
12725;SDS011;6427;49.754;6.106;2023-11-21T07:48:55;7.07;;;4.43;;
12725;SDS011;6427;49.754;6.106;2023-11-21T07:51:23;8.90;;;5.17;;
12725;SDS011;6427;49.754;6.106;2023-11-21T07:53:50;8.27;;;5.20;;
12725;SDS011;6427;49.754;6.106;2023-11-21T07:56:19;9.48;;;6.60;;
12725;SDS011;6427;49.754;6.106;2023-11-21T07:58:46;10.13;;;6.23;;
12725;SDS011;6427;49.754;6.106;2023-11-21T08:01:14;10.15;;;6.53;;
12725;SDS011;6427;49.754;6.106;2023-11-21T08:03:42;9.93;;;6.20;;
12725;SDS011;6427;49.754;6.106;2023-11-21T08:06:09;9.17;;;6.40;;
12725;SDS011;6427;49.754;6.106;2023-11-21T08:08:37;10.70;;;7.30;;
12725;SDS011;6427;49.754;6.106;2023-11-21T08:11:04;10.37;;;6.40;;
12725;SDS011;6427;49.754;6.106;2023-11-21T08:13:32;8.97;;;6.10;;
12725;SDS011;6427;49.754;6.106;2023-11-21T08:15:59;10.20;;;5.77;;
12725;SDS011;6427;49.754;6.106;2023-11-21T08:18:27;12.70;;;7.00;;
12725;SDS011;6427;49.754;6.106;2023-11-21T08:20:55;11.73;;;6.13;;
12725;SDS011;6427;49.754;6.106;2023-11-21T08:23:23;9.73;;;6.10;;
12725;SDS011;6427;49.754;6.106;2023-11-21T08:25:53;9.77;;;5.60;;
12725;SDS011;6427;49.754;6.106;2023-11-21T08:28:21;9.90;;;6.30;;
12725;SDS011;6427;49.754;6.106;2023-11-21T08:30:52;11.03;;;5.83;;
12725;SDS011;6427;49.754;6.106;2023-11-21T08:33:20;9.93;;;5.93;;
12725;SDS011;6427;49.754;6.106;2023-11-21T08:35:48;9.40;;;5.80;;
12725;SDS011;6427;49.754;6.106;2023-11-21T08:38:15;9.77;;;6.10;;
12725;SDS011;6427;49.754;6.106;2023-11-21T08:40:43;10.23;;;6.10;;
12725;SDS011;6427;49.754;6.106;2023-11-21T08:43:10;12.03;;;6.13;;
12725;SDS011;6427;49.754;6.106;2023-11-21T08:45:38;9.47;;;5.73;;
12725;SDS011;6427;49.754;6.106;2023-11-21T08:48:06;10.37;;;6.00;;
12725;SDS011;6427;49.754;6.106;2023-11-21T08:50:34;9.17;;;6.37;;
12725;SDS011;6427;49.754;6.106;2023-11-21T08:53:01;10.67;;;6.20;;
12725;SDS011;6427;49.754;6.106;2023-11-21T08:55:29;18.40;;;7.90;;
12725;SDS011;6427;49.754;6.106;2023-11-21T08:57:56;11.40;;;6.27;;
12725;SDS011;6427;49.754;6.106;2023-11-21T09:00:24;9.80;;;6.57;;
12725;SDS011;6427;49.754;6.106;2023-11-21T09:02:52;9.43;;;6.20;;
12725;SDS011;6427;49.754;6.106;2023-11-21T09:05:19;10.97;;;5.70;;
12725;SDS011;6427;49.754;6.106;2023-11-21T09:07:47;9.97;;;6.10;;
12725;SDS011;6427;49.754;6.106;2023-11-21T09:10:16;11.53;;;6.80;;
12725;SDS011;6427;49.754;6.106;2023-11-21T09:12:43;9.73;;;5.97;;
12725;SDS011;6427;49.754;6.106;2023-11-21T09:15:11;10.80;;;6.97;;
12725;SDS011;6427;49.754;6.106;2023-11-21T09:17:39;15.00;;;8.63;;
12725;SDS011;6427;49.754;6.106;2023-11-21T09:20:06;9.63;;;6.10;;
12725;SDS011;6427;49.754;6.106;2023-11-21T09:22:34;10.27;;;6.17;;
12725;SDS011;6427;49.754;6.106;2023-11-21T09:25:02;14.93;;;6.73;;
12725;SDS011;6427;49.754;6.106;2023-11-21T09:27:29;10.23;;;6.63;;
12725;SDS011;6427;49.754;6.106;2023-11-21T09:29:57;13.87;;;6.37;;
12725;SDS011;6427;49.754;6.106;2023-11-21T09:32:24;15.52;;;7.45;;
12725;SDS011;6427;49.754;6.106;2023-11-21T09:34:52;10.73;;;6.40;;
12725;SDS011;6427;49.754;6.106;2023-11-21T09:37:19;9.45;;;6.80;;
12725;SDS011;6427;49.754;6.106;2023-11-21T09:39:47;11.77;;;5.30;;
12725;SDS011;6427;49.754;6.106;2023-11-21T09:42:23;8.17;;;5.63;;
12725;SDS011;6427;49.754;6.106;2023-11-21T09:45:03;9.83;;;5.20;;
12725;SDS011;6427;49.754;6.106;2023-11-21T09:47:28;8.53;;;5.07;;
12725;SDS011;6427;49.754;6.106;2023-11-21T09:49:56;8.10;;;4.77;;
12725;SDS011;6427;49.754;6.106;2023-11-21T09:52:26;11.10;;;6.60;;
12725;SDS011;6427;49.754;6.106;2023-11-21T09:54:55;8.20;;;5.40;;
12725;SDS011;6427;49.754;6.106;2023-11-21T09:57:22;8.93;;;4.67;;
12725;SDS011;6427;49.754;6.106;2023-11-21T09:59:50;8.83;;;5.00;;
12725;SDS011;6427;49.754;6.106;2023-11-21T10:02:17;7.63;;;4.97;;
12725;SDS011;6427;49.754;6.106;2023-11-21T10:04:45;9.47;;;4.80;;
12725;SDS011;6427;49.754;6.106;2023-11-21T10:07:13;6.67;;;4.33;;
12725;SDS011;6427;49.754;6.106;2023-11-21T10:09:40;7.20;;;5.00;;
12725;SDS011;6427;49.754;6.106;2023-11-21T10:12:07;8.10;;;4.60;;
12725;SDS011;6427;49.754;6.106;2023-11-21T10:14:36;8.23;;;5.13;;
12725;SDS011;6427;49.754;6.106;2023-11-21T10:17:02;8.97;;;5.53;;
12725;SDS011;6427;49.754;6.106;2023-11-21T10:19:30;7.90;;;5.13;;
12725;SDS011;6427;49.754;6.106;2023-11-21T10:21:58;9.20;;;5.20;;
12725;SDS011;6427;49.754;6.106;2023-11-21T10:24:26;8.70;;;4.67;;
12725;SDS011;6427;49.754;6.106;2023-11-21T10:26:54;9.90;;;6.45;;
12725;SDS011;6427;49.754;6.106;2023-11-21T10:29:21;11.03;;;5.70;;
12725;SDS011;6427;49.754;6.106;2023-11-21T10:31:49;9.20;;;5.70;;
12725;SDS011;6427;49.754;6.106;2023-11-21T10:34:17;7.73;;;5.67;;
12725;SDS011;6427;49.754;6.106;2023-11-21T10:36:44;11.07;;;5.53;;
12725;SDS011;6427;49.754;6.106;2023-11-21T10:39:18;9.73;;;5.30;;
12725;SDS011;6427;49.754;6.106;2023-11-21T10:41:48;8.47;;;4.93;;
12725;SDS011;6427;49.754;6.106;2023-11-21T10:44:18;9.53;;;5.53;;
12725;SDS011;6427;49.754;6.106;2023-11-21T10:46:45;8.00;;;5.30;;
12725;SDS011;6427;49.754;6.106;2023-11-21T10:49:12;15.77;;;5.97;;
12725;SDS011;6427;49.754;6.106;2023-11-21T10:51:40;11.17;;;5.20;;
12725;SDS011;6427;49.754;6.106;2023-11-21T10:54:07;8.93;;;5.20;;
12725;SDS011;6427;49.754;6.106;2023-11-21T10:56:35;10.17;;;5.10;;
12725;SDS011;6427;49.754;6.106;2023-11-21T10:59:03;12.60;;;6.20;;
12725;SDS011;6427;49.754;6.106;2023-11-21T11:01:31;11.00;;;5.60;;
12725;SDS011;6427;49.754;6.106;2023-11-21T11:03:58;9.90;;;5.00;;
12725;SDS011;6427;49.754;6.106;2023-11-21T11:06:26;9.63;;;5.63;;
12725;SDS011;6427;49.754;6.106;2023-11-21T11:08:54;11.43;;;5.13;;
12725;SDS011;6427;49.754;6.106;2023-11-21T11:11:21;9.53;;;4.73;;
12725;SDS011;6427;49.754;6.106;2023-11-21T11:13:50;11.17;;;5.07;;
12725;SDS011;6427;49.754;6.106;2023-11-21T11:16:17;7.83;;;5.00;;
12725;SDS011;6427;49.754;6.106;2023-11-21T11:18:45;10.13;;;4.43;;
12725;SDS011;6427;49.754;6.106;2023-11-21T11:21:20;8.97;;;4.40;;
12725;SDS011;6427;49.754;6.106;2023-11-21T11:23:46;7.90;;;4.73;;
12725;SDS011;6427;49.754;6.106;2023-11-21T11:28:51;7.77;;;4.50;;
12725;SDS011;6427;49.754;6.106;2023-11-21T11:31:28;5.40;;;3.60;;
12725;SDS011;6427;49.754;6.106;2023-11-21T11:34:26;6.30;;;3.60;;
12725;SDS011;6427;49.754;6.106;2023-11-21T11:36:43;6.07;;;3.60;;
12725;SDS011;6427;49.754;6.106;2023-11-21T11:39:29;6.72;;;4.57;;
12725;SDS011;6427;49.754;6.106;2023-11-21T11:42:02;5.53;;;3.40;;
12725;SDS011;6427;49.754;6.106;2023-11-21T11:49:57;5.27;;;3.40;;
12725;SDS011;6427;49.754;6.106;2023-11-21T11:52:38;7.07;;;3.43;;
12725;SDS011;6427;49.754;6.106;2023-11-21T11:55:08;5.27;;;3.40;;
12725;SDS011;6427;49.754;6.106;2023-11-21T11:57:34;8.20;;;3.57;;
12725;SDS011;6427;49.754;6.106;2023-11-21T12:00:12;9.60;;;3.63;;
12725;SDS011;6427;49.754;6.106;2023-11-21T12:02:39;6.57;;;3.57;;
12725;SDS011;6427;49.754;6.106;2023-11-21T12:05:13;5.53;;;3.70;;
12725;SDS011;6427;49.754;6.106;2023-11-21T12:07:49;7.43;;;3.70;;
12725;SDS011;6427;49.754;6.106;2023-11-21T12:10:17;6.43;;;3.13;;
12725;SDS011;6427;49.754;6.106;2023-11-21T12:12:45;5.83;;;2.90;;
12725;SDS011;6427;49.754;6.106;2023-11-21T12:15:12;6.53;;;3.37;;
12725;SDS011;6427;49.754;6.106;2023-11-21T12:17:41;4.80;;;3.13;;
12725;SDS011;6427;49.754;6.106;2023-11-21T12:20:11;4.87;;;2.80;;
12725;SDS011;6427;49.754;6.106;2023-11-21T12:22:44;6.93;;;3.03;;
12725;SDS011;6427;49.754;6.106;2023-11-21T12:25:11;13.23;;;3.27;;
12725;SDS011;6427;49.754;6.106;2023-11-21T12:27:39;10.77;;;3.10;;
12725;SDS011;6427;49.754;6.106;2023-11-21T12:30:06;14.23;;;3.10;;
12725;SDS011;6427;49.754;6.106;2023-11-21T12:32:34;6.30;;;2.87;;
12725;SDS011;6427;49.754;6.106;2023-11-21T12:35:02;7.00;;;2.73;;
12725;SDS011;6427;49.754;6.106;2023-11-21T12:37:29;7.35;;;3.60;;
12725;SDS011;6427;49.754;6.106;2023-11-21T12:39:57;6.57;;;3.00;;
12725;SDS011;6427;49.754;6.106;2023-11-21T12:42:24;6.30;;;3.23;;
12725;SDS011;6427;49.754;6.106;2023-11-21T12:45:38;5.90;;;3.10;;
12725;SDS011;6427;49.754;6.106;2023-11-21T12:47:42;6.87;;;3.57;;
12725;SDS011;6427;49.754;6.106;2023-11-21T12:50:10;7.27;;;3.57;;
12725;SDS011;6427;49.754;6.106;2023-11-21T12:52:46;7.90;;;3.70;;
12725;SDS011;6427;49.754;6.106;2023-11-21T12:55:20;8.90;;;4.03;;
12725;SDS011;6427;49.754;6.106;2023-11-21T12:57:44;6.53;;;3.37;;
12725;SDS011;6427;49.754;6.106;2023-11-21T13:00:12;8.10;;;3.97;;
12725;SDS011;6427;49.754;6.106;2023-11-21T13:02:42;5.53;;;3.30;;
12725;SDS011;6427;49.754;6.106;2023-11-21T13:05:09;8.17;;;3.37;;
12725;SDS011;6427;49.754;6.106;2023-11-21T13:07:42;5.43;;;3.17;;
12725;SDS011;6427;49.754;6.106;2023-11-21T13:10:10;6.43;;;3.50;;
12725;SDS011;6427;49.754;6.106;2023-11-21T13:12:42;7.20;;;3.33;;
12725;SDS011;6427;49.754;6.106;2023-11-21T13:15:05;6.97;;;3.43;;
12725;SDS011;6427;49.754;6.106;2023-11-21T13:17:33;8.02;;;4.15;;
12725;SDS011;6427;49.754;6.106;2023-11-21T13:20:00;5.93;;;3.47;;
12725;SDS011;6427;49.754;6.106;2023-11-21T13:22:28;5.80;;;3.60;;
12725;SDS011;6427;49.754;6.106;2023-11-21T13:24:56;6.03;;;3.50;;
12725;SDS011;6427;49.754;6.106;2023-11-21T13:27:23;7.13;;;3.27;;
12725;SDS011;6427;49.754;6.106;2023-11-21T13:29:51;6.13;;;3.43;;
12725;SDS011;6427;49.754;6.106;2023-11-21T13:32:18;6.53;;;3.33;;
12725;SDS011;6427;49.754;6.106;2023-11-21T13:34:46;7.87;;;3.60;;
12725;SDS011;6427;49.754;6.106;2023-11-21T13:37:14;8.43;;;4.03;;
12725;SDS011;6427;49.754;6.106;2023-11-21T13:39:41;5.83;;;3.40;;
12725;SDS011;6427;49.754;6.106;2023-11-21T13:42:09;6.03;;;3.43;;
12725;SDS011;6427;49.754;6.106;2023-11-21T13:44:36;7.17;;;3.40;;
12725;SDS011;6427;49.754;6.106;2023-11-21T13:47:05;8.47;;;3.60;;
12725;SDS011;6427;49.754;6.106;2023-11-21T13:49:32;5.40;;;3.10;;
12725;SDS011;6427;49.754;6.106;2023-11-21T13:52:01;5.77;;;3.03;;
12725;SDS011;6427;49.754;6.106;2023-11-21T13:54:29;6.67;;;3.30;;
12725;SDS011;6427;49.754;6.106;2023-11-21T13:56:57;7.90;;;3.10;;
12725;SDS011;6427;49.754;6.106;2023-11-21T13:59:24;9.07;;;3.47;;
12725;SDS011;6427;49.754;6.106;2023-11-21T14:01:55;6.53;;;2.60;;
12725;SDS011;6427;49.754;6.106;2023-11-21T14:04:23;6.07;;;3.40;;
12725;SDS011;6427;49.754;6.106;2023-11-21T14:06:56;6.20;;;3.50;;
12725;SDS011;6427;49.754;6.106;2023-11-21T14:09:24;5.77;;;3.00;;
12725;SDS011;6427;49.754;6.106;2023-11-21T14:11:51;5.83;;;2.83;;
12725;SDS011;6427;49.754;6.106;2023-11-21T14:14:19;5.95;;;3.58;;
12725;SDS011;6427;49.754;6.106;2023-11-21T14:16:46;4.60;;;2.93;;
12725;SDS011;6427;49.754;6.106;2023-11-21T14:19:14;6.23;;;3.17;;
12725;SDS011;6427;49.754;6.106;2023-11-21T14:21:44;7.03;;;3.53;;
12725;SDS011;6427;49.754;6.106;2023-11-21T14:24:12;5.07;;;3.00;;
12725;SDS011;6427;49.754;6.106;2023-11-21T14:26:48;7.07;;;3.30;;
12725;SDS011;6427;49.754;6.106;2023-11-21T14:29:13;6.53;;;3.27;;
12725;SDS011;6427;49.754;6.106;2023-11-21T14:31:40;5.63;;;2.90;;
12725;SDS011;6427;49.754;6.106;2023-11-21T14:34:08;5.83;;;3.30;;
12725;SDS011;6427;49.754;6.106;2023-11-21T14:36:35;4.03;;;2.70;;
12725;SDS011;6427;49.754;6.106;2023-11-21T14:39:08;6.70;;;3.40;;
12725;SDS011;6427;49.754;6.106;2023-11-21T14:41:36;9.80;;;3.63;;
12725;SDS011;6427;49.754;6.106;2023-11-21T14:44:03;7.33;;;3.20;;
12725;SDS011;6427;49.754;6.106;2023-11-21T14:46:31;10.50;;;3.97;;
12725;SDS011;6427;49.754;6.106;2023-11-21T14:48:59;11.82;;;4.45;;
12725;SDS011;6427;49.754;6.106;2023-11-21T14:51:27;10.17;;;4.03;;
12725;SDS011;6427;49.754;6.106;2023-11-21T14:54:00;10.10;;;3.97;;
12725;SDS011;6427;49.754;6.106;2023-11-21T14:56:27;7.43;;;3.77;;
12725;SDS011;6427;49.754;6.106;2023-11-21T14:58:58;8.77;;;3.47;;
12725;SDS011;6427;49.754;6.106;2023-11-21T15:01:25;7.03;;;4.00;;
12725;SDS011;6427;49.754;6.106;2023-11-21T15:04:02;9.23;;;3.57;;
12725;SDS011;6427;49.754;6.106;2023-11-21T15:06:29;8.27;;;3.47;;
12725;SDS011;6427;49.754;6.106;2023-11-21T15:08:57;6.83;;;3.40;;
12725;SDS011;6427;49.754;6.106;2023-11-21T15:11:34;8.75;;;4.15;;
12725;SDS011;6427;49.754;6.106;2023-11-21T15:14:01;8.63;;;3.63;;